Time;durP1;ratioP1;P1;durP2;ratioP2;P2;SDS_P1;SDS_P2;PMS_P1;PMS_P2;Temp;Humidity;BMP_temperature;BMP_pressure;BME280_temperature;BME280_humidity;BME280_pressure;Samples;Min_cycle;Max_cycle;Signal;HPM_P1;HPM_P2
2022/04/03 00:02:13;;;;;;;23.52;13.82;;;;;;;;;;5002183;28;20028;-61
2022/04/03 00:04:38;;;;;;;25.10;13.55;;;;;;;;;;5000301;28;20073;-60
2022/04/03 00:07:05;;;;;;;25.25;13.85;;;;;;;;;;4995691;28;20092;-63
2022/04/03 00:09:30;;;;;;;28.42;14.32;;;;;;;;;;4998477;28;20018;-59
2022/04/03 00:11:56;;;;;;;25.00;13.63;;;;;;;;;;5003272;28;20545;-61
2022/04/03 00:14:21;;;;;;;27.38;13.73;;;;;;;;;;5005960;28;20260;-60
2022/04/03 00:16:46;;;;;;;25.55;14.10;;;;;;;;;;5006596;28;20381;-60
2022/04/03 00:19:12;;;;;;;28.35;14.27;;;;;;;;;;5004490;28;20113;-60
2022/04/03 00:21:38;;;;;;;26.05;13.90;;;;;;;;;;4999890;28;20030;-61
2022/04/03 00:24:04;;;;;;;26.10;13.68;;;;;;;;;;4989200;28;20053;-60
2022/04/03 00:26:30;;;;;;;23.25;13.45;;;;;;;;;;5006117;28;20068;-60
2022/04/03 00:28:55;;;;;;;21.13;11.93;;;;;;;;;;5001597;28;20546;-60
2022/04/03 00:31:21;;;;;;;23.17;12.95;;;;;;;;;;5001524;28;20030;-59
2022/04/03 00:33:46;;;;;;;22.77;12.20;;;;;;;;;;5002662;28;20033;-60
2022/04/03 00:36:12;;;;;;;23.65;12.20;;;;;;;;;;5001977;28;20034;-61
2022/04/03 00:38:37;;;;;;;30.48;13.30;;;;;;;;;;4993433;28;20451;-61
2022/04/03 00:41:03;;;;;;;26.73;11.90;;;;;;;;;;4998389;28;20380;-60
2022/04/03 00:43:30;;;;;;;22.45;11.90;;;;;;;;;;4999060;28;20042;-60
2022/04/03 00:45:57;;;;;;;21.30;11.60;;;;;;;;;;4998984;28;20153;-61
2022/04/03 00:48:23;;;;;;;26.58;11.82;;;;;;;;;;5002458;28;20116;-60
2022/04/03 00:50:49;;;;;;;26.67;12.85;;;;;;;;;;4999705;28;20527;-60
2022/04/03 00:53:14;;;;;;;25.50;13.32;;;;;;;;;;4996514;28;20036;-59
2022/04/03 00:55:43;;;;;;;22.10;11.95;;;;;;;;;;4994718;28;20018;-60
2022/04/03 00:58:12;;;;;;;26.05;13.15;;;;;;;;;;5004704;28;20368;-60
2022/04/03 01:00:38;;;;;;;22.05;12.40;;;;;;;;;;5007911;28;20030;-60
2022/04/03 01:03:05;;;;;;;23.30;12.95;;;;;;;;;;5002676;28;20034;-60
2022/04/03 01:05:30;;;;;;;25.27;12.70;;;;;;;;;;5004774;28;20022;-60
2022/04/03 01:07:56;;;;;;;26.02;13.38;;;;;;;;;;5005177;28;20072;-61
2022/04/03 01:10:21;;;;;;;24.92;13.75;;;;;;;;;;4997108;28;20030;-60
2022/04/03 01:12:47;;;;;;;29.85;13.63;;;;;;;;;;4994721;28;20026;-60
2022/04/03 01:15:16;;;;;;;27.65;13.18;;;;;;;;;;4997349;28;20537;-60
2022/04/03 01:17:43;;;;;;;23.70;12.48;;;;;;;;;;4997043;28;20372;-60
2022/04/03 01:20:10;;;;;;;35.97;14.32;;;;;;;;;;5000706;28;20129;-60
2022/04/03 01:22:36;;;;;;;27.80;13.38;;;;;;;;;;5000036;28;20128;-61
2022/04/03 01:25:03;;;;;;;24.88;13.00;;;;;;;;;;5002096;28;20050;-61
2022/04/03 01:27:29;;;;;;;24.90;12.73;;;;;;;;;;5004528;28;20025;-60
2022/04/03 01:29:54;;;;;;;26.83;13.32;;;;;;;;;;5001269;28;20297;-59
2022/04/03 01:32:20;;;;;;;28.52;12.60;;;;;;;;;;5002315;28;20446;-61
2022/04/03 01:34:46;;;;;;;20.85;12.05;;;;;;;;;;5007462;28;20028;-61
2022/04/03 01:37:12;;;;;;;24.17;13.35;;;;;;;;;;5000753;28;20030;-60
2022/04/03 01:39:37;;;;;;;26.55;12.20;;;;;;;;;;4992492;28;20033;-60
2022/04/03 01:42:03;;;;;;;24.60;12.65;;;;;;;;;;4998593;28;20062;-60
2022/04/03 01:44:29;;;;;;;21.77;11.77;;;;;;;;;;4990638;28;20117;-60
2022/04/03 01:46:55;;;;;;;23.05;12.50;;;;;;;;;;4997728;28;20026;-60
2022/04/03 01:49:20;;;;;;;27.40;12.90;;;;;;;;;;4996596;28;20554;-60
2022/04/03 01:51:45;;;;;;;24.83;12.05;;;;;;;;;;4995958;28;20638;-61
2022/04/03 01:54:11;;;;;;;27.92;13.00;;;;;;;;;;4995644;28;20026;-61
2022/04/03 01:56:37;;;;;;;26.73;12.38;;;;;;;;;;5001403;28;20491;-60
2022/04/03 01:59:03;;;;;;;21.42;12.48;;;;;;;;;;5004767;28;20154;-61
2022/04/03 02:01:33;;;;;;;26.15;13.82;;;;;;;;;;4996301;28;20033;-60
2022/04/03 02:04:00;;;;;;;23.48;12.82;;;;;;;;;;4995234;28;20195;-61
2022/04/03 02:06:25;;;;;;;24.88;13.43;;;;;;;;;;5001776;28;20140;-60
2022/04/03 02:08:51;;;;;;;25.75;12.43;;;;;;;;;;5002846;28;20551;-60
2022/04/03 02:11:16;;;;;;;22.42;12.15;;;;;;;;;;4996407;28;20080;-60
2022/04/03 02:13:42;;;;;;;21.15;12.40;;;;;;;;;;5000176;28;20514;-60
2022/04/03 02:16:09;;;;;;;25.25;12.95;;;;;;;;;;4999199;28;20404;-61
2022/04/03 02:18:35;;;;;;;21.83;11.77;;;;;;;;;;4997851;28;20117;-60
2022/04/03 02:21:00;;;;;;;20.90;12.00;;;;;;;;;;4985927;28;20448;-60
2022/04/03 02:23:26;;;;;;;22.88;12.13;;;;;;;;;;5003642;28;20034;-60
2022/04/03 02:25:52;;;;;;;20.08;12.05;;;;;;;;;;5004635;28;20399;-60
2022/04/03 02:28:18;;;;;;;20.02;11.43;;;;;;;;;;5002378;28;20116;-60
2022/04/03 02:30:44;;;;;;;21.58;10.80;;;;;;;;;;4994993;28;20435;-60
2022/04/03 02:33:09;;;;;;;19.30;10.73;;;;;;;;;;5001418;28;20064;-61
2022/04/03 02:35:34;;;;;;;23.77;11.95;;;;;;;;;;4996044;28;20496;-60
2022/04/03 02:38:00;;;;;;;19.35;11.45;;;;;;;;;;4998014;28;20479;-60
2022/04/03 02:40:26;;;;;;;23.48;12.60;;;;;;;;;;5002675;28;20522;-61
2022/04/03 02:42:54;;;;;;;22.25;11.77;;;;;;;;;;5002249;28;20026;-61
2022/04/03 02:45:20;;;;;;;20.70;10.88;;;;;;;;;;4999690;28;20391;-60
2022/04/03 02:47:54;;;;;;;20.60;11.05;;;;;;;;;;4994996;28;20027;-61
2022/04/03 02:50:21;;;;;;;19.75;10.60;;;;;;;;;;4998602;28;20033;-60
2022/04/03 02:52:51;;;;;;;19.33;11.40;;;;;;;;;;5000243;28;20511;-60
2022/04/03 02:55:16;;;;;;;;;;;;;;;;;;4990770;28;20030;-60
2022/04/03 02:57:42;;;;;;;18.30;10.45;;;;;;;;;;5005592;28;19966;-60
2022/04/03 03:00:08;;;;;;;25.55;11.68;;;;;;;;;;5007883;28;20173;-61
2022/04/03 03:02:33;;;;;;;17.58;10.68;;;;;;;;;;5000704;28;20399;-60
2022/04/03 03:04:59;;;;;;;20.13;10.27;;;;;;;;;;5001959;28;20459;-60
2022/04/03 03:07:34;;;;;;;22.73;11.13;;;;;;;;;;5004394;28;20036;-61
2022/04/03 03:10:00;;;;;;;21.02;10.75;;;;;;;;;;5006415;28;20566;-61
2022/04/03 03:12:25;;;;;;;20.85;10.18;;;;;;;;;;5006820;28;20022;-60
2022/04/03 03:14:51;;;;;;;18.63;10.45;;;;;;;;;;5009110;28;20119;-60
2022/04/03 03:17:16;;;;;;;19.15;9.75;;;;;;;;;;5000212;28;20031;-61
2022/04/03 03:19:41;;;;;;;18.73;10.73;;;;;;;;;;5002962;28;20053;-60
2022/04/03 03:22:07;;;;;;;18.67;10.35;;;;;;;;;;5004826;28;20448;-60
2022/04/03 03:24:33;;;;;;;17.70;10.07;;;;;;;;;;5006406;28;20052;-61
2022/04/03 03:26:58;;;;;;;19.48;11.35;;;;;;;;;;5008016;28;20034;-62
2022/04/03 03:29:23;;;;;;;19.88;10.68;;;;;;;;;;5005969;28;20407;-61
2022/04/03 03:31:49;;;;;;;16.70;10.43;;;;;;;;;;4996575;28;20030;-61
2022/04/03 03:34:14;;;;;;;18.92;11.10;;;;;;;;;;5002417;28;20037;-61
2022/04/03 03:36:40;;;;;;;18.95;10.15;;;;;;;;;;5007724;28;20041;-61
2022/04/03 03:39:05;;;;;;;20.67;10.60;;;;;;;;;;5003467;28;20368;-60
2022/04/03 03:41:30;;;;;;;19.67;10.43;;;;;;;;;;4998595;28;20042;-60
2022/04/03 03:43:56;;;;;;;22.05;11.30;;;;;;;;;;5002984;28;20488;-61
2022/04/03 03:46:21;;;;;;;19.60;10.63;;;;;;;;;;5003322;28;20038;-61
2022/04/03 03:48:47;;;;;;;18.52;10.43;;;;;;;;;;5000724;28;20069;-61
2022/04/03 03:51:12;;;;;;;22.08;10.20;;;;;;;;;;4988226;28;20053;-61
2022/04/03 03:53:37;;;;;;;21.45;11.63;;;;;;;;;;5002872;28;20109;-60
2022/04/03 03:56:04;;;;;;;19.85;11.40;;;;;;;;;;5004517;28;20034;-60
2022/04/03 03:58:30;;;;;;;19.20;10.77;;;;;;;;;;5001516;28;20403;-61
2022/04/03 04:00:55;;;;;;;20.70;10.60;;;;;;;;;;5004765;28;20038;-60
2022/04/03 04:03:21;;;;;;;22.23;11.15;;;;;;;;;;5005161;28;20120;-60
2022/04/03 04:05:46;;;;;;;19.00;10.90;;;;;;;;;;5001507;28;20031;-60
2022/04/03 04:08:12;;;;;;;24.25;11.30;;;;;;;;;;4984847;28;20444;-60
2022/04/03 04:10:37;;;;;;;17.45;10.48;;;;;;;;;;4990860;28;20029;-60
2022/04/03 04:13:03;;;;;;;16.27;10.50;;;;;;;;;;5000552;28;20022;-59
2022/04/03 04:15:28;;;;;;;19.92;11.02;;;;;;;;;;4997019;28;20034;-60
2022/04/03 04:17:54;;;;;;;17.45;10.13;;;;;;;;;;4993788;28;20026;-61
2022/04/03 04:20:21;;;;;;;22.35;10.85;;;;;;;;;;4998773;28;20497;-60
2022/04/03 04:22:48;;;;;;;24.15;11.82;;;;;;;;;;4997577;28;20032;-60
2022/04/03 04:25:15;;;;;;;21.92;11.25;;;;;;;;;;5005689;28;20503;-60
2022/04/03 04:27:45;;;;;;;20.70;11.65;;;;;;;;;;5002939;28;20034;-61
2022/04/03 04:30:13;;;;;;;19.35;10.95;;;;;;;;;;5006739;28;20076;-61
2022/04/03 04:32:38;;;;;;;20.27;10.68;;;;;;;;;;5003131;28;20064;-60
2022/04/03 04:35:05;;;;;;;20.65;11.13;;;;;;;;;;4995601;28;20112;-61
2022/04/03 04:37:31;;;;;;;25.33;11.55;;;;;;;;;;5001126;28;20039;-60
2022/04/03 04:39:57;;;;;;;25.77;12.23;;;;;;;;;;4997747;28;20050;-60
2022/04/03 04:42:22;;;;;;;22.17;11.07;;;;;;;;;;5005194;28;20071;-60
2022/04/03 04:44:48;;;;;;;23.55;11.82;;;;;;;;;;4999330;28;20037;-60
2022/04/03 04:47:14;;;;;;;23.88;12.18;;;;;;;;;;4998381;28;20056;-61
2022/04/03 04:49:39;;;;;;;25.23;12.48;;;;;;;;;;4991422;28;20054;-60
2022/04/03 04:52:05;;;;;;;22.52;12.18;;;;;;;;;;4997932;28;20050;-60
2022/04/03 04:54:30;;;;;;;23.75;11.98;;;;;;;;;;5003634;28;20498;-60
2022/04/03 04:56:57;;;;;;;21.95;12.02;;;;;;;;;;4999676;28;20033;-60
2022/04/03 04:59:22;;;;;;;26.02;12.50;;;;;;;;;;4993893;28;20510;-60
2022/04/03 05:01:48;;;;;;;24.02;11.77;;;;;;;;;;4999252;28;20029;-60
2022/04/03 05:04:14;;;;;;;24.63;12.68;;;;;;;;;;5003867;28;20089;-59
2022/04/03 05:06:40;;;;;;;24.45;12.43;;;;;;;;;;4993899;28;20033;-61
2022/04/03 05:09:06;;;;;;;25.65;13.65;;;;;;;;;;5001408;28;20033;-62
2022/04/03 05:11:33;;;;;;;27.77;13.27;;;;;;;;;;4995544;28;20021;-64
2022/04/03 05:13:58;;;;;;;25.10;12.65;;;;;;;;;;5002371;28;20061;-64
2022/04/03 05:16:24;;;;;;;27.88;13.40;;;;;;;;;;4998125;28;20046;-64
2022/04/03 05:18:51;;;;;;;28.77;12.77;;;;;;;;;;4998084;28;20065;-64
2022/04/03 05:21:16;;;;;;;24.02;12.65;;;;;;;;;;5001562;28;20014;-65
2022/04/03 05:23:42;;;;;;;24.88;13.23;;;;;;;;;;5002317;28;20110;-64
2022/04/03 05:26:07;;;;;;;27.80;12.75;;;;;;;;;;5006812;28;20029;-63
2022/04/03 05:28:33;;;;;;;23.65;13.13;;;;;;;;;;5002440;28;20116;-65
2022/04/03 05:30:58;;;;;;;27.63;12.95;;;;;;;;;;5001307;28;20030;-65
2022/04/03 05:33:24;;;;;;;24.48;12.13;;;;;;;;;;5002977;28;20057;-63
2022/04/03 05:35:50;;;;;;;24.95;12.70;;;;;;;;;;5004843;28;20034;-63
2022/04/03 05:38:16;;;;;;;25.00;12.00;;;;;;;;;;4999388;28;20061;-63
2022/04/03 05:40:42;;;;;;;23.90;12.30;;;;;;;;;;4982129;28;20022;-65
2022/04/03 05:43:08;;;;;;;20.02;11.88;;;;;;;;;;4995909;28;20040;-64
2022/04/03 05:45:34;;;;;;;25.08;11.93;;;;;;;;;;4987372;28;20061;-63
2022/04/03 05:47:59;;;;;;;25.80;12.68;;;;;;;;;;4993593;28;20037;-63
2022/04/03 05:50:24;;;;;;;25.10;12.70;;;;;;;;;;5003125;28;20040;-64
2022/04/03 05:52:52;;;;;;;26.95;12.93;;;;;;;;;;4998984;28;20057;-63
2022/04/03 05:55:19;;;;;;;25.38;13.10;;;;;;;;;;5000323;28;20108;-64
2022/04/03 05:57:50;;;;;;;25.83;13.30;;;;;;;;;;4996927;28;20105;-64
2022/04/03 06:00:17;;;;;;;25.65;12.63;;;;;;;;;;4995273;28;20550;-64
2022/04/03 06:02:53;;;;;;;23.13;12.93;;;;;;;;;;4996484;28;20057;-64
2022/04/03 06:05:31;;;;;;;24.73;12.25;;;;;;;;;;5000577;28;20042;-64
2022/04/03 06:07:57;;;;;;;25.13;13.10;;;;;;;;;;4999220;28;20026;-64
2022/04/03 06:10:24;;;;;;;25.33;12.52;;;;;;;;;;5000957;28;20074;-66
2022/04/03 06:12:56;;;;;;;29.13;13.57;;;;;;;;;;4998151;28;20394;-64
2022/04/03 06:15:22;;;;;;;28.75;14.23;;;;;;;;;;5004282;28;20113;-65
2022/04/03 06:17:49;;;;;;;25.88;13.20;;;;;;;;;;5006309;28;20104;-64
2022/04/03 06:20:14;;;;;;;24.55;12.98;;;;;;;;;;5003561;28;20022;-65
2022/04/03 06:22:40;;;;;;;25.60;14.38;;;;;;;;;;4982798;28;20096;-65
2022/04/03 06:25:06;;;;;;;27.08;12.82;;;;;;;;;;4994481;28;20447;-63
2022/04/03 06:27:33;;;;;;;23.42;13.30;;;;;;;;;;4996403;28;20096;-64
2022/04/03 06:29:58;;;;;;;24.55;12.80;;;;;;;;;;4996836;28;20388;-64
2022/04/03 06:32:24;;;;;;;26.50;13.15;;;;;;;;;;5000630;28;20014;-64
2022/04/03 06:34:49;;;;;;;27.83;13.52;;;;;;;;;;4993450;28;20034;-65
2022/04/03 06:37:14;;;;;;;30.77;14.68;;;;;;;;;;5002315;28;20033;-64
2022/04/03 06:39:40;;;;;;;74.15;36.45;;;;;;;;;;4994512;28;20449;-64
2022/04/03 06:42:06;;;;;;;81.57;35.85;;;;;;;;;;4994956;28;20026;-63
2022/04/03 06:44:32;;;;;;;103.68;42.15;;;;;;;;;;5000566;28;20100;-65
2022/04/03 06:46:59;;;;;;;74.30;33.33;;;;;;;;;;4997779;28;20046;-63
2022/04/03 06:49:26;;;;;;;69.88;32.42;;;;;;;;;;4994563;28;20065;-65
2022/04/03 06:51:51;;;;;;;83.35;41.15;;;;;;;;;;4996289;28;20484;-63
2022/04/03 06:54:16;;;;;;;47.78;24.52;;;;;;;;;;4995545;28;20041;-64
2022/04/03 06:56:42;;;;;;;24.45;11.75;;;;;;;;;;4993501;28;20033;-59
2022/04/03 06:59:07;;;;;;;30.15;15.90;;;;;;;;;;4992577;28;20130;-60
2022/04/03 07:01:33;;;;;;;26.10;15.25;;;;;;;;;;5004598;28;20557;-65
2022/04/03 07:03:58;;;;;;;24.63;13.27;;;;;;;;;;4995055;28;20050;-63
2022/04/03 07:06:23;;;;;;;24.58;12.93;;;;;;;;;;4998416;28;20041;-64
2022/04/03 07:08:49;;;;;;;21.58;11.88;;;;;;;;;;4997232;28;20034;-64
2022/04/03 07:11:15;;;;;;;20.20;12.32;;;;;;;;;;5001689;28;20025;-63
2022/04/03 07:13:41;;;;;;;21.90;11.98;;;;;;;;;;4993561;28;20242;-64
2022/04/03 07:16:06;;;;;;;22.67;12.77;;;;;;;;;;5000573;28;20093;-63
2022/04/03 07:18:35;;;;;;;21.42;11.63;;;;;;;;;;4999941;28;20109;-64
2022/04/03 07:21:00;;;;;;;21.83;11.52;;;;;;;;;;4999203;28;20112;-64
2022/04/03 07:23:26;;;;;;;24.13;12.43;;;;;;;;;;4999545;28;20125;-64
2022/04/03 07:25:51;;;;;;;24.63;12.70;;;;;;;;;;4995621;28;20038;-63
2022/04/03 07:28:16;;;;;;;33.58;15.10;;;;;;;;;;5001094;28;20034;-64
2022/04/03 07:30:42;;;;;;;31.35;14.40;;;;;;;;;;4998688;28;20100;-63
2022/04/03 07:33:07;;;;;;;28.52;13.15;;;;;;;;;;4997495;28;20448;-64
2022/04/03 07:35:33;;;;;;;25.30;14.15;;;;;;;;;;5003367;28;20037;-64
2022/04/03 07:37:58;;;;;;;21.08;12.18;;;;;;;;;;4997280;28;20030;-64
2022/04/03 07:40:24;;;;;;;22.65;12.07;;;;;;;;;;5002870;28;20060;-64
2022/04/03 07:42:51;;;;;;;42.50;19.20;;;;;;;;;;5005842;28;20093;-64
2022/04/03 07:45:17;;;;;;;23.85;13.32;;;;;;;;;;4997087;28;20034;-63
2022/04/03 07:47:50;;;;;;;21.90;12.48;;;;;;;;;;5007316;28;20022;-64
2022/04/03 07:50:18;;;;;;;28.00;14.18;;;;;;;;;;4998610;28;20503;-64
2022/04/03 07:52:44;;;;;;;20.23;12.15;;;;;;;;;;5002325;28;20077;-65
2022/04/03 07:55:12;;;;;;;17.17;10.25;;;;;;;;;;5000800;28;20034;-64
2022/04/03 07:57:39;;;;;;;21.42;12.23;;;;;;;;;;5002651;28;20029;-64
2022/04/03 08:00:07;;;;;;;28.15;14.73;;;;;;;;;;4998528;28;20279;-64
2022/04/03 08:02:34;;;;;;;22.45;12.07;;;;;;;;;;5002869;28;20053;-61
2022/04/03 08:05:00;;;;;;;33.55;10.25;;;;;;;;;;5000331;28;20524;-65
2022/04/03 08:07:45;;;;;;;22.27;11.63;;;;;;;;;;4978688;28;20129;-63
2022/04/03 08:10:13;;;;;;;28.80;14.45;;;;;;;;;;4995001;28;20038;-64
2022/04/03 08:12:41;;;;;;;23.10;10.88;;;;;;;;;;5005922;28;20068;-62
2022/04/03 08:15:08;;;;;;;23.85;11.20;;;;;;;;;;4989113;28;20466;-63
2022/04/03 08:17:34;;;;;;;20.27;10.48;;;;;;;;;;4997314;28;20037;-64
2022/04/03 08:20:01;;;;;;;24.70;12.85;;;;;;;;;;5000160;28;20026;-65
2022/04/03 08:22:27;;;;;;;18.30;11.63;;;;;;;;;;5005291;28;20375;-64
2022/04/03 08:24:53;;;;;;;22.35;11.98;;;;;;;;;;4996616;28;20042;-64
2022/04/03 08:27:19;;;;;;;19.10;11.15;;;;;;;;;;5003655;28;20086;-65
2022/04/03 08:29:45;;;;;;;22.00;11.60;;;;;;;;;;5003003;28;20029;-64
2022/04/03 08:32:10;;;;;;;24.45;12.63;;;;;;;;;;4999895;28;20470;-64
2022/04/03 08:34:36;;;;;;;18.70;11.27;;;;;;;;;;5004598;28;20480;-65
2022/04/03 08:37:02;;;;;;;16.25;10.13;;;;;;;;;;5001569;28;20041;-64
2022/04/03 08:39:28;;;;;;;18.70;10.70;;;;;;;;;;5003383;28;20024;-64
2022/04/03 08:41:55;;;;;;;16.00;9.18;;;;;;;;;;4995802;28;20033;-64
2022/04/03 08:44:21;;;;;;;18.42;9.60;;;;;;;;;;4996602;28;20029;-65
2022/04/03 08:46:48;;;;;;;22.30;10.98;;;;;;;;;;4999245;28;20022;-64
2022/04/03 08:49:15;;;;;;;12.23;7.72;;;;;;;;;;4997050;28;20117;-63
2022/04/03 08:51:41;;;;;;;36.13;19.42;;;;;;;;;;4998563;28;20037;-66
2022/04/03 08:54:07;;;;;;;139.63;51.60;;;;;;;;;;5006783;28;20026;-64
2022/04/03 08:56:32;;;;;;;60.05;25.85;;;;;;;;;;5003803;28;20511;-64
2022/04/03 08:58:58;;;;;;;29.45;12.75;;;;;;;;;;5000442;28;20029;-64
2022/04/03 09:01:24;;;;;;;17.13;9.50;;;;;;;;;;4997449;28;20380;-64
2022/04/03 09:03:50;;;;;;;21.15;10.25;;;;;;;;;;4999861;28;20072;-64
2022/04/03 09:06:17;;;;;;;18.00;9.73;;;;;;;;;;5002796;28;20049;-64
2022/04/03 09:08:44;;;;;;;25.58;9.88;;;;;;;;;;5000056;28;20076;-64
2022/04/03 09:11:10;;;;;;;12.68;7.85;;;;;;;;;;4999554;28;20034;-63
2022/04/03 09:13:36;;;;;;;14.38;8.23;;;;;;;;;;4999502;28;20034;-65
2022/04/03 09:16:04;;;;;;;16.85;7.88;;;;;;;;;;4996319;28;20349;-63
2022/04/03 09:18:51;;;;;;;16.40;7.80;;;;;;;;;;5003865;28;20103;-63
2022/04/03 09:21:16;;;;;;;11.77;7.47;;;;;;;;;;4998868;28;20057;-63
2022/04/03 09:24:07;;;;;;;15.00;8.95;;;;;;;;;;5006752;28;20041;-63
2022/04/03 09:26:34;;;;;;;13.23;8.38;;;;;;;;;;5002188;28;20040;-63
2022/04/03 09:29:14;;;;;;;16.58;9.48;;;;;;;;;;4989844;28;20038;-64
2022/04/03 09:31:41;;;;;;;18.48;9.32;;;;;;;;;;4994894;28;20030;-63
2022/04/03 09:34:17;;;;;;;16.45;9.70;;;;;;;;;;5001433;28;20164;-63
2022/04/03 09:36:43;;;;;;;22.27;9.68;;;;;;;;;;4998160;28;20431;-63
2022/04/03 09:39:09;;;;;;;18.75;9.73;;;;;;;;;;4997837;28;20037;-63
2022/04/03 09:42:09;;;;;;;16.98;9.45;;;;;;;;;;4985377;28;20038;-64
2022/04/03 09:44:44;;;;;;;21.02;11.18;;;;;;;;;;4995295;28;20066;-63
2022/04/03 09:47:33;;;;;;;24.27;10.15;;;;;;;;;;4995415;28;20030;-63
2022/04/03 09:50:01;;;;;;;16.63;9.85;;;;;;;;;;4994333;28;20315;-64
2022/04/03 09:52:44;;;;;;;25.83;11.45;;;;;;;;;;4996445;28;20373;-64
2022/04/03 09:55:12;;;;;;;24.48;13.05;;;;;;;;;;5001466;28;20037;-65
2022/04/03 09:57:38;;;;;;;30.33;10.38;;;;;;;;;;5005237;28;20134;-60
2022/04/03 10:00:05;;;;;;;19.10;10.18;;;;;;;;;;4994154;28;20113;-58
2022/04/03 10:02:31;;;;;;;19.67;11.68;;;;;;;;;;5004377;28;20025;-64
2022/04/03 10:04:57;;;;;;;15.85;9.70;;;;;;;;;;4998701;28;20113;-64
2022/04/03 10:07:24;;;;;;;13.32;9.18;;;;;;;;;;5001626;28;20087;-62
2022/04/03 10:09:52;;;;;;;15.90;8.57;;;;;;;;;;5005368;28;20140;-64
2022/04/03 10:12:20;;;;;;;15.90;9.10;;;;;;;;;;5001090;28;20034;-64
2022/04/03 10:14:49;;;;;;;16.52;9.77;;;;;;;;;;4999483;28;20446;-63
2022/04/03 10:17:16;;;;;;;14.52;8.70;;;;;;;;;;5001782;28;20030;-64
2022/04/03 10:19:42;;;;;;;15.98;9.52;;;;;;;;;;4995093;28;20042;-63
2022/04/03 10:22:16;;;;;;;22.17;11.63;;;;;;;;;;4994051;28;20031;-64
2022/04/03 10:24:46;;;;;;;15.38;9.65;;;;;;;;;;4999668;28;20018;-63
2022/04/03 10:27:15;;;;;;;;;;;;;;;;;;5001162;28;20034;-62
2022/04/03 10:29:43;;;;;;;17.20;8.65;;;;;;;;;;5001570;28;20237;-63
2022/04/03 10:32:20;;;;;;;16.35;7.85;;;;;;;;;;4995961;28;20099;-62
2022/04/03 10:34:47;;;;;;;16.38;8.85;;;;;;;;;;4993999;28;20105;-62
2022/04/03 10:37:34;;;;;;;14.68;8.23;;;;;;;;;;4994324;28;20184;-64
2022/04/03 10:40:18;;;;;;;15.15;8.80;;;;;;;;;;4996138;28;20099;-65
2022/04/03 10:42:58;;;;;;;13.30;8.40;;;;;;;;;;4998581;28;20026;-64
2022/04/03 10:45:29;;;;;;;14.27;9.02;;;;;;;;;;4995656;28;20026;-64
2022/04/03 10:48:20;;;;;;;13.75;8.80;;;;;;;;;;4997024;28;20041;-64
2022/04/03 10:51:10;;;;;;;16.30;9.07;;;;;;;;;;4994933;28;20022;-63
2022/04/03 10:53:39;;;;;;;;;;;;;;;;;;5003788;28;20042;-64
2022/04/03 10:56:10;;;;;;;16.20;9.43;;;;;;;;;;4998923;28;20322;-63
2022/04/03 10:58:49;;;;;;;13.95;8.68;;;;;;;;;;4997494;28;20033;-64
2022/04/03 11:01:25;;;;;;;19.10;9.73;;;;;;;;;;5004925;28;20133;-64
2022/04/03 11:03:58;;;;;;;20.50;10.55;;;;;;;;;;5001262;28;20176;-64
2022/04/03 11:06:27;;;;;;;19.08;8.90;;;;;;;;;;4998562;28;20025;-65
2022/04/03 11:08:58;;;;;;;13.47;7.40;;;;;;;;;;4997447;28;20376;-63
2022/04/03 11:11:50;;;;;;;18.58;8.50;;;;;;;;;;4990647;28;20048;-65
2022/04/03 11:14:57;;;;;;;18.02;7.72;;;;;;;;;;5004159;28;20061;-63
2022/04/03 11:17:48;;;;;;;16.98;8.43;;;;;;;;;;4996431;28;20068;-64
2022/04/03 11:20:40;;;;;;;14.75;8.35;;;;;;;;;;4994877;28;20520;-64
2022/04/03 11:23:08;;;;;;;19.40;9.52;;;;;;;;;;4994662;28;20136;-64
2022/04/03 11:25:34;;;;;;;22.65;10.98;;;;;;;;;;5003843;28;20029;-64
2022/04/03 11:28:00;;;;;;;24.05;11.63;;;;;;;;;;5005997;28;20026;-63
2022/04/03 11:30:25;;;;;;;19.50;9.20;;;;;;;;;;4986717;28;20112;-63
2022/04/03 11:32:51;;;;;;;25.10;10.73;;;;;;;;;;5000023;28;20018;-63
2022/04/03 11:35:34;;;;;;;32.42;13.15;;;;;;;;;;5005587;28;20029;-63
2022/04/03 11:38:00;;;;;;;18.23;8.38;;;;;;;;;;4995327;28;20488;-63
2022/04/03 11:40:25;;;;;;;16.50;7.35;;;;;;;;;;4985387;28;20029;-65
2022/04/03 11:43:15;;;;;;;13.38;7.65;;;;;;;;;;5003564;28;20503;-64
2022/04/03 11:45:48;;;;;;;;;;;;;;;;;;5005647;28;20026;-64
2022/04/03 11:48:15;;;;;;;10.95;6.65;;;;;;;;;;4999107;28;19937;-64
2022/04/03 11:50:41;;;;;;;23.00;8.18;;;;;;;;;;5001895;28;20025;-64
2022/04/03 11:53:08;;;;;;;30.15;10.98;;;;;;;;;;5005321;28;20026;-64
2022/04/03 11:55:35;;;;;;;20.92;8.02;;;;;;;;;;5009042;28;20033;-64
2022/04/03 11:58:03;;;;;;;11.70;6.55;;;;;;;;;;5002102;28;20046;-63
2022/04/03 12:00:33;;;;;;;11.32;6.82;;;;;;;;;;4989223;28;20031;-64
2022/04/03 12:02:59;;;;;;;14.38;8.07;;;;;;;;;;5000669;28;20348;-64
2022/04/03 12:05:24;;;;;;;11.77;6.65;;;;;;;;;;5003504;28;20105;-64
2022/04/03 12:07:50;;;;;;;10.80;6.65;;;;;;;;;;5003223;28;20113;-64
2022/04/03 12:10:26;;;;;;;15.77;7.80;;;;;;;;;;5002416;28;20033;-66
2022/04/03 12:12:54;;;;;;;16.95;8.23;;;;;;;;;;5002218;28;20440;-65
2022/04/03 12:15:24;;;;;;;13.73;7.43;;;;;;;;;;5003185;28;20026;-64
2022/04/03 12:18:00;;;;;;;9.07;6.00;;;;;;;;;;5000962;28;20045;-66
2022/04/03 12:20:34;;;;;;;12.55;7.07;;;;;;;;;;5005329;28;20040;-64
2022/04/03 12:22:59;;;;;;;13.43;7.72;;;;;;;;;;4994051;28;20038;-64
2022/04/03 12:25:25;;;;;;;24.75;11.45;;;;;;;;;;5007922;28;20368;-64
2022/04/03 12:27:50;;;;;;;30.95;14.27;;;;;;;;;;4999064;28;20137;-64
2022/04/03 12:30:16;;;;;;;15.20;7.93;;;;;;;;;;4980349;28;20435;-64
2022/04/03 12:32:43;;;;;;;13.40;6.85;;;;;;;;;;4996590;28;20034;-65
2022/04/03 12:35:11;;;;;;;9.68;6.10;;;;;;;;;;4979496;28;20034;-64
2022/04/03 12:37:42;;;;;;;10.38;6.60;;;;;;;;;;4991264;28;20200;-64
2022/04/03 12:40:12;;;;;;;14.20;7.55;;;;;;;;;;4992105;28;20499;-64
2022/04/03 12:42:44;;;;;;;23.83;10.25;;;;;;;;;;4995684;28;20080;-63
2022/04/03 12:45:20;;;;;;;13.55;7.40;;;;;;;;;;5005990;28;20033;-64
2022/04/03 12:47:46;;;;;;;19.85;8.95;;;;;;;;;;4994464;28;20515;-63
2022/04/03 12:50:38;;;;;;;25.23;10.07;;;;;;;;;;4995030;28;20391;-64
2022/04/03 12:53:06;;;;;;;14.25;7.35;;;;;;;;;;4994746;28;20042;-64
2022/04/03 12:55:51;;;;;;;11.65;6.38;;;;;;;;;;5003480;28;20454;-64
2022/04/03 12:58:24;;;;;;;11.10;6.05;;;;;;;;;;4985076;28;20030;-64
2022/04/03 13:01:16;;;;;;;12.32;6.30;;;;;;;;;;4992515;28;20116;-64
2022/04/03 13:03:47;;;;;;;11.57;7.25;;;;;;;;;;4996127;28;20479;-64
2022/04/03 13:06:21;;;;;;;11.85;7.07;;;;;;;;;;5003650;28;20182;-64
2022/04/03 13:08:51;;;;;;;14.07;7.57;;;;;;;;;;4999239;28;20022;-64
2022/04/03 13:11:26;;;;;;;;;;;;;;;;;;4999316;28;20480;-64
2022/04/03 13:13:51;;;;;;;15.55;6.60;;;;;;;;;;5003705;28;19913;-65
2022/04/03 13:16:17;;;;;;;9.90;5.88;;;;;;;;;;5005062;28;20168;-64
2022/04/03 13:18:42;;;;;;;12.15;6.13;;;;;;;;;;4997705;28;20034;-63
2022/04/03 13:21:18;;;;;;;10.32;6.68;;;;;;;;;;4994036;28;20034;-64
2022/04/03 13:23:43;;;;;;;11.52;6.85;;;;;;;;;;5004417;28;20055;-64
2022/04/03 13:26:09;;;;;;;7.78;5.60;;;;;;;;;;4995310;28;20121;-64
2022/04/03 13:28:34;;;;;;;11.70;6.05;;;;;;;;;;4998689;28;20030;-64
2022/04/03 13:30:59;;;;;;;10.73;5.93;;;;;;;;;;4997385;28;20049;-64
2022/04/03 13:33:25;;;;;;;8.00;6.00;;;;;;;;;;5002628;28;20045;-64
2022/04/03 13:35:50;;;;;;;12.13;6.55;;;;;;;;;;4996878;28;20030;-64
2022/04/03 13:38:16;;;;;;;14.07;6.82;;;;;;;;;;5001500;28;20023;-64
2022/04/03 13:40:42;;;;;;;10.38;6.03;;;;;;;;;;4996748;28;20048;-64
2022/04/03 13:43:10;;;;;;;9.90;6.00;;;;;;;;;;4992305;28;20034;-64
2022/04/03 13:45:58;;;;;;;11.27;6.20;;;;;;;;;;4997532;28;20025;-64
2022/04/03 13:48:25;;;;;;;9.65;6.05;;;;;;;;;;5002232;28;20030;-64
2022/04/03 13:50:53;;;;;;;12.05;6.97;;;;;;;;;;4998013;28;20026;-64
2022/04/03 13:53:20;;;;;;;13.15;7.55;;;;;;;;;;5000574;28;20060;-64
2022/04/03 13:55:45;;;;;;;9.45;5.28;;;;;;;;;;5002665;28;20036;-65
2022/04/03 13:58:11;;;;;;;9.98;5.53;;;;;;;;;;4999774;28;20030;-64
2022/04/03 14:00:37;;;;;;;10.95;6.38;;;;;;;;;;4999301;28;20108;-64
2022/04/03 14:03:03;;;;;;;12.80;6.93;;;;;;;;;;5002854;28;20026;-64
2022/04/03 14:05:28;;;;;;;17.83;8.40;;;;;;;;;;5003017;28;20025;-64
2022/04/03 14:07:54;;;;;;;15.15;8.40;;;;;;;;;;5000492;28;20107;-64
2022/04/03 14:10:19;;;;;;;12.05;6.78;;;;;;;;;;5000646;28;20026;-65
2022/04/03 14:12:45;;;;;;;10.98;6.75;;;;;;;;;;4981879;28;20500;-64
2022/04/03 14:15:11;;;;;;;13.55;6.70;;;;;;;;;;4999124;28;20353;-64
2022/04/03 14:17:36;;;;;;;12.32;7.30;;;;;;;;;;4995498;28;20084;-64
2022/04/03 14:20:03;;;;;;;14.25;6.60;;;;;;;;;;4995134;28;20030;-64
2022/04/03 14:22:28;;;;;;;17.38;9.63;;;;;;;;;;4996089;28;20533;-65
2022/04/03 14:24:54;;;;;;;18.83;10.02;;;;;;;;;;5001527;28;20033;-64
2022/04/03 14:27:21;;;;;;;16.05;8.23;;;;;;;;;;4996374;28;20526;-64
2022/04/03 14:29:46;;;;;;;21.33;11.52;;;;;;;;;;4994232;28;20062;-64